sensor_id;sensor_type;location;lat;lon;timestamp;P1;durP1;ratioP1;P2;durP2;ratioP2
23658;SDS011;12006;42.666;23.326;2022-08-19T00:02:12;3.92;;;3.50;;
23658;SDS011;12006;42.666;23.326;2022-08-19T00:04:37;3.97;;;3.58;;
23658;SDS011;12006;42.666;23.326;2022-08-19T00:07:03;5.88;;;3.67;;
23658;SDS011;12006;42.666;23.326;2022-08-19T00:09:29;3.22;;;2.90;;
23658;SDS011;12006;42.666;23.326;2022-08-19T00:11:54;4.95;;;3.55;;
23658;SDS011;12006;42.666;23.326;2022-08-19T00:14:20;3.08;;;2.78;;
23658;SDS011;12006;42.666;23.326;2022-08-19T00:16:47;3.47;;;3.20;;
23658;SDS011;12006;42.666;23.326;2022-08-19T00:19:13;5.40;;;4.00;;
23658;SDS011;12006;42.666;23.326;2022-08-19T00:21:38;4.40;;;4.00;;
23658;SDS011;12006;42.666;23.326;2022-08-19T00:24:08;4.80;;;3.78;;
23658;SDS011;12006;42.666;23.326;2022-08-19T00:26:33;4.63;;;4.22;;
23658;SDS011;12006;42.666;23.326;2022-08-19T00:28:59;3.65;;;3.35;;
23658;SDS011;12006;42.666;23.326;2022-08-19T00:31:26;4.55;;;4.15;;
23658;SDS011;12006;42.666;23.326;2022-08-19T00:33:52;4.28;;;3.88;;
23658;SDS011;12006;42.666;23.326;2022-08-19T00:36:18;4.07;;;3.67;;
23658;SDS011;12006;42.666;23.326;2022-08-19T00:38:43;4.50;;;3.80;;
23658;SDS011;12006;42.666;23.326;2022-08-19T00:41:16;4.43;;;3.90;;
23658;SDS011;12006;42.666;23.326;2022-08-19T00:43:43;4.03;;;3.60;;
23658;SDS011;12006;42.666;23.326;2022-08-19T00:46:08;4.25;;;3.83;;
23658;SDS011;12006;42.666;23.326;2022-08-19T00:48:33;4.30;;;3.90;;
23658;SDS011;12006;42.666;23.326;2022-08-19T00:50:59;3.90;;;3.50;;
23658;SDS011;12006;42.666;23.326;2022-08-19T00:53:26;3.75;;;3.38;;
23658;SDS011;12006;42.666;23.326;2022-08-19T00:55:53;4.25;;;3.90;;
23658;SDS011;12006;42.666;23.326;2022-08-19T00:58:20;5.28;;;3.38;;
23658;SDS011;12006;42.666;23.326;2022-08-19T01:00:47;4.65;;;3.47;;
23658;SDS011;12006;42.666;23.326;2022-08-19T01:03:16;4.10;;;3.75;;
23658;SDS011;12006;42.666;23.326;2022-08-19T01:05:43;4.72;;;4.22;;
23658;SDS011;12006;42.666;23.326;2022-08-19T01:08:09;4.10;;;3.22;;
23658;SDS011;12006;42.666;23.326;2022-08-19T01:11:17;5.55;;;4.15;;
23658;SDS011;12006;42.666;23.326;2022-08-19T01:13:24;4.60;;;4.15;;
23658;SDS011;12006;42.666;23.326;2022-08-19T01:15:52;4.50;;;4.10;;
23658;SDS011;12006;42.666;23.326;2022-08-19T01:18:19;4.03;;;3.38;;
23658;SDS011;12006;42.666;23.326;2022-08-19T01:20:45;4.68;;;4.28;;
23658;SDS011;12006;42.666;23.326;2022-08-19T01:23:10;4.35;;;3.95;;
23658;SDS011;12006;42.666;23.326;2022-08-19T01:25:41;5.13;;;4.40;;
23658;SDS011;12006;42.666;23.326;2022-08-19T01:28:08;5.60;;;4.03;;
23658;SDS011;12006;42.666;23.326;2022-08-19T01:30:39;5.30;;;4.68;;
23658;SDS011;12006;42.666;23.326;2022-08-19T01:33:04;3.60;;;3.30;;
23658;SDS011;12006;42.666;23.326;2022-08-19T01:35:30;4.68;;;4.07;;
23658;SDS011;12006;42.666;23.326;2022-08-19T01:38:01;5.15;;;4.25;;
23658;SDS011;12006;42.666;23.326;2022-08-19T01:40:27;5.75;;;4.25;;
23658;SDS011;12006;42.666;23.326;2022-08-19T01:42:54;6.55;;;4.28;;
23658;SDS011;12006;42.666;23.326;2022-08-19T01:45:20;5.68;;;4.47;;
23658;SDS011;12006;42.666;23.326;2022-08-19T01:47:46;3.72;;;3.25;;
23658;SDS011;12006;42.666;23.326;2022-08-19T01:50:12;6.18;;;4.53;;
23658;SDS011;12006;42.666;23.326;2022-08-19T01:52:39;6.22;;;4.57;;
23658;SDS011;12006;42.666;23.326;2022-08-19T01:55:05;7.18;;;4.07;;
23658;SDS011;12006;42.666;23.326;2022-08-19T01:57:31;4.18;;;3.78;;
23658;SDS011;12006;42.666;23.326;2022-08-19T01:59:57;5.57;;;3.65;;
23658;SDS011;12006;42.666;23.326;2022-08-19T02:02:22;6.63;;;4.45;;
23658;SDS011;12006;42.666;23.326;2022-08-19T02:04:48;5.22;;;4.28;;
23658;SDS011;12006;42.666;23.326;2022-08-19T02:07:13;6.30;;;4.60;;
23658;SDS011;12006;42.666;23.326;2022-08-19T02:09:38;5.55;;;4.47;;
23658;SDS011;12006;42.666;23.326;2022-08-19T02:12:04;5.53;;;4.93;;
23658;SDS011;12006;42.666;23.326;2022-08-19T02:14:30;5.60;;;4.53;;
23658;SDS011;12006;42.666;23.326;2022-08-19T02:16:55;5.43;;;4.35;;
23658;SDS011;12006;42.666;23.326;2022-08-19T02:19:20;6.45;;;4.60;;
23658;SDS011;12006;42.666;23.326;2022-08-19T02:21:46;5.40;;;4.43;;
23658;SDS011;12006;42.666;23.326;2022-08-19T02:24:11;5.05;;;4.60;;
23658;SDS011;12006;42.666;23.326;2022-08-19T02:26:37;7.10;;;4.78;;
23658;SDS011;12006;42.666;23.326;2022-08-19T02:29:02;5.28;;;4.38;;
23658;SDS011;12006;42.666;23.326;2022-08-19T02:31:28;5.50;;;4.40;;
23658;SDS011;12006;42.666;23.326;2022-08-19T02:33:53;5.30;;;4.82;;
23658;SDS011;12006;42.666;23.326;2022-08-19T02:36:19;6.20;;;5.20;;
23658;SDS011;12006;42.666;23.326;2022-08-19T02:38:44;5.68;;;4.68;;
23658;SDS011;12006;42.666;23.326;2022-08-19T02:41:15;6.30;;;4.97;;
23658;SDS011;12006;42.666;23.326;2022-08-19T02:43:41;5.70;;;4.63;;
23658;SDS011;12006;42.666;23.326;2022-08-19T02:46:17;5.00;;;4.50;;
23658;SDS011;12006;42.666;23.326;2022-08-19T02:48:46;5.28;;;4.78;;
23658;SDS011;12006;42.666;23.326;2022-08-19T02:51:15;4.13;;;3.75;;
23658;SDS011;12006;42.666;23.326;2022-08-19T02:53:41;5.50;;;5.00;;
23658;SDS011;12006;42.666;23.326;2022-08-19T02:56:06;4.28;;;3.90;;
23658;SDS011;12006;42.666;23.326;2022-08-19T02:58:32;5.97;;;4.65;;
23658;SDS011;12006;42.666;23.326;2022-08-19T03:00:58;4.65;;;4.25;;
23658;SDS011;12006;42.666;23.326;2022-08-19T03:03:24;6.20;;;4.93;;
23658;SDS011;12006;42.666;23.326;2022-08-19T03:05:49;5.07;;;4.57;;
23658;SDS011;12006;42.666;23.326;2022-08-19T03:08:14;5.15;;;4.65;;
23658;SDS011;12006;42.666;23.326;2022-08-19T03:10:45;5.85;;;4.80;;
23658;SDS011;12006;42.666;23.326;2022-08-19T03:13:15;4.82;;;4.35;;
23658;SDS011;12006;42.666;23.326;2022-08-19T03:15:42;4.63;;;4.18;;
23658;SDS011;12006;42.666;23.326;2022-08-19T03:18:07;5.03;;;4.53;;
23658;SDS011;12006;42.666;23.326;2022-08-19T03:20:33;4.95;;;4.55;;
23658;SDS011;12006;42.666;23.326;2022-08-19T03:22:58;4.15;;;3.78;;
23658;SDS011;12006;42.666;23.326;2022-08-19T03:25:24;5.28;;;4.78;;
23658;SDS011;12006;42.666;23.326;2022-08-19T03:27:49;5.38;;;4.38;;
23658;SDS011;12006;42.666;23.326;2022-08-19T03:30:14;5.65;;;4.95;;
23658;SDS011;12006;42.666;23.326;2022-08-19T03:32:40;6.20;;;4.95;;
23658;SDS011;12006;42.666;23.326;2022-08-19T03:35:05;5.35;;;4.55;;
23658;SDS011;12006;42.666;23.326;2022-08-19T03:37:31;6.03;;;5.50;;
23658;SDS011;12006;42.666;23.326;2022-08-19T03:39:56;5.22;;;4.68;;
23658;SDS011;12006;42.666;23.326;2022-08-19T03:42:21;5.13;;;4.63;;
23658;SDS011;12006;42.666;23.326;2022-08-19T03:44:47;5.45;;;4.90;;
23658;SDS011;12006;42.666;23.326;2022-08-19T03:47:12;8.32;;;4.97;;
23658;SDS011;12006;42.666;23.326;2022-08-19T03:49:41;5.82;;;5.20;;
23658;SDS011;12006;42.666;23.326;2022-08-19T03:52:06;5.30;;;4.78;;
23658;SDS011;12006;42.666;23.326;2022-08-19T03:54:33;5.32;;;4.75;;
23658;SDS011;12006;42.666;23.326;2022-08-19T03:56:58;6.03;;;4.68;;
23658;SDS011;12006;42.666;23.326;2022-08-19T03:59:26;5.63;;;4.78;;
23658;SDS011;12006;42.666;23.326;2022-08-19T04:01:56;6.13;;;5.50;;
23658;SDS011;12006;42.666;23.326;2022-08-19T04:04:21;5.75;;;4.63;;
23658;SDS011;12006;42.666;23.326;2022-08-19T04:06:47;7.28;;;6.43;;
23658;SDS011;12006;42.666;23.326;2022-08-19T04:09:13;6.15;;;5.28;;
23658;SDS011;12006;42.666;23.326;2022-08-19T04:11:46;5.97;;;4.88;;
23658;SDS011;12006;42.666;23.326;2022-08-19T04:14:12;6.15;;;5.45;;
23658;SDS011;12006;42.666;23.326;2022-08-19T04:16:39;5.97;;;5.35;;
23658;SDS011;12006;42.666;23.326;2022-08-19T04:19:04;6.38;;;5.22;;
23658;SDS011;12006;42.666;23.326;2022-08-19T04:21:30;6.50;;;4.93;;
23658;SDS011;12006;42.666;23.326;2022-08-19T04:23:55;7.65;;;5.47;;
23658;SDS011;12006;42.666;23.326;2022-08-19T04:26:22;4.93;;;4.50;;
23658;SDS011;12006;42.666;23.326;2022-08-19T04:28:48;6.45;;;5.28;;
23658;SDS011;12006;42.666;23.326;2022-08-19T04:31:14;5.55;;;4.95;;
23658;SDS011;12006;42.666;23.326;2022-08-19T04:33:40;5.18;;;4.68;;
23658;SDS011;12006;42.666;23.326;2022-08-19T04:36:06;5.47;;;4.95;;
23658;SDS011;12006;42.666;23.326;2022-08-19T04:38:31;6.80;;;4.85;;
23658;SDS011;12006;42.666;23.326;2022-08-19T04:40:56;6.25;;;4.85;;
23658;SDS011;12006;42.666;23.326;2022-08-19T04:43:40;5.88;;;5.00;;
23658;SDS011;12006;42.666;23.326;2022-08-19T04:46:09;6.55;;;5.00;;
23658;SDS011;12006;42.666;23.326;2022-08-19T04:48:35;6.75;;;5.03;;
23658;SDS011;12006;42.666;23.326;2022-08-19T04:51:01;7.88;;;6.78;;
23658;SDS011;12006;42.666;23.326;2022-08-19T04:53:27;9.50;;;8.15;;
23658;SDS011;12006;42.666;23.326;2022-08-19T04:55:54;9.52;;;8.40;;
23658;SDS011;12006;42.666;23.326;2022-08-19T04:58:19;9.43;;;8.50;;
23658;SDS011;12006;42.666;23.326;2022-08-19T05:00:44;8.93;;;7.38;;
23658;SDS011;12006;42.666;23.326;2022-08-19T05:03:10;7.70;;;6.55;;
23658;SDS011;12006;42.666;23.326;2022-08-19T05:05:41;7.95;;;7.15;;
23658;SDS011;12006;42.666;23.326;2022-08-19T05:08:06;5.90;;;5.38;;
23658;SDS011;12006;42.666;23.326;2022-08-19T05:10:34;7.18;;;6.38;;
23658;SDS011;12006;42.666;23.326;2022-08-19T05:13:00;5.93;;;5.43;;
23658;SDS011;12006;42.666;23.326;2022-08-19T05:15:25;5.93;;;5.40;;
23658;SDS011;12006;42.666;23.326;2022-08-19T05:17:51;9.63;;;6.30;;
23658;SDS011;12006;42.666;23.326;2022-08-19T05:20:37;6.13;;;5.53;;
23658;SDS011;12006;42.666;23.326;2022-08-19T05:23:21;6.03;;;5.43;;
23658;SDS011;12006;42.666;23.326;2022-08-19T05:25:46;9.25;;;5.82;;
23658;SDS011;12006;42.666;23.326;2022-08-19T05:28:11;7.20;;;6.00;;
23658;SDS011;12006;42.666;23.326;2022-08-19T05:30:36;7.70;;;6.15;;
23658;SDS011;12006;42.666;23.326;2022-08-19T05:33:02;7.57;;;5.15;;
23658;SDS011;12006;42.666;23.326;2022-08-19T05:35:27;7.25;;;5.95;;
23658;SDS011;12006;42.666;23.326;2022-08-19T05:37:53;6.10;;;5.43;;
23658;SDS011;12006;42.666;23.326;2022-08-19T05:40:19;6.43;;;5.65;;
23658;SDS011;12006;42.666;23.326;2022-08-19T05:42:44;6.43;;;5.82;;
23658;SDS011;12006;42.666;23.326;2022-08-19T05:45:10;7.28;;;6.05;;
23658;SDS011;12006;42.666;23.326;2022-08-19T05:47:36;8.63;;;6.32;;
23658;SDS011;12006;42.666;23.326;2022-08-19T05:50:02;6.30;;;5.78;;
23658;SDS011;12006;42.666;23.326;2022-08-19T05:52:27;6.65;;;5.13;;
23658;SDS011;12006;42.666;23.326;2022-08-19T05:54:53;5.53;;;5.03;;
23658;SDS011;12006;42.666;23.326;2022-08-19T05:57:20;5.85;;;5.35;;
23658;SDS011;12006;42.666;23.326;2022-08-19T05:59:45;6.72;;;6.13;;
23658;SDS011;12006;42.666;23.326;2022-08-19T06:02:13;6.25;;;5.65;;
23658;SDS011;12006;42.666;23.326;2022-08-19T06:04:39;6.10;;;5.47;;
23658;SDS011;12006;42.666;23.326;2022-08-19T06:07:07;4.95;;;4.45;;
23658;SDS011;12006;42.666;23.326;2022-08-19T06:09:32;5.53;;;5.00;;
23658;SDS011;12006;42.666;23.326;2022-08-19T06:11:58;5.72;;;5.18;;
23658;SDS011;12006;42.666;23.326;2022-08-19T06:14:26;6.18;;;5.57;;
23658;SDS011;12006;42.666;23.326;2022-08-19T06:16:51;8.35;;;5.57;;
23658;SDS011;12006;42.666;23.326;2022-08-19T06:19:18;6.38;;;5.50;;
23658;SDS011;12006;42.666;23.326;2022-08-19T06:21:45;5.95;;;5.43;;
23658;SDS011;12006;42.666;23.326;2022-08-19T06:24:12;8.00;;;5.75;;
23658;SDS011;12006;42.666;23.326;2022-08-19T06:26:40;5.15;;;4.70;;
23658;SDS011;12006;42.666;23.326;2022-08-19T06:29:07;5.38;;;4.85;;
23658;SDS011;12006;42.666;23.326;2022-08-19T06:31:33;4.85;;;4.45;;
23658;SDS011;12006;42.666;23.326;2022-08-19T06:33:59;5.57;;;4.97;;
23658;SDS011;12006;42.666;23.326;2022-08-19T06:36:29;5.50;;;4.93;;
23658;SDS011;12006;42.666;23.326;2022-08-19T06:38:58;5.13;;;4.72;;
23658;SDS011;12006;42.666;23.326;2022-08-19T06:41:24;5.88;;;5.30;;
23658;SDS011;12006;42.666;23.326;2022-08-19T06:43:50;5.78;;;5.10;;
23658;SDS011;12006;42.666;23.326;2022-08-19T06:46:17;13.35;;;11.60;;
23658;SDS011;12006;42.666;23.326;2022-08-19T06:48:43;7.45;;;5.90;;
23658;SDS011;12006;42.666;23.326;2022-08-19T06:51:09;4.88;;;4.47;;
23658;SDS011;12006;42.666;23.326;2022-08-19T06:53:34;5.53;;;5.03;;
23658;SDS011;12006;42.666;23.326;2022-08-19T06:55:59;7.40;;;5.55;;
23658;SDS011;12006;42.666;23.326;2022-08-19T06:58:30;6.53;;;5.85;;
23658;SDS011;12006;42.666;23.326;2022-08-19T07:01:01;5.32;;;4.85;;
23658;SDS011;12006;42.666;23.326;2022-08-19T07:03:28;5.30;;;4.80;;
23658;SDS011;12006;42.666;23.326;2022-08-19T07:05:55;5.13;;;4.72;;
23658;SDS011;12006;42.666;23.326;2022-08-19T07:08:21;7.45;;;5.65;;
23658;SDS011;12006;42.666;23.326;2022-08-19T07:10:46;6.38;;;5.40;;
23658;SDS011;12006;42.666;23.326;2022-08-19T07:13:12;4.88;;;4.47;;
23658;SDS011;12006;42.666;23.326;2022-08-19T07:15:38;7.28;;;6.47;;
23658;SDS011;12006;42.666;23.326;2022-08-19T07:18:03;9.70;;;8.80;;
23658;SDS011;12006;42.666;23.326;2022-08-19T07:20:29;8.55;;;7.75;;
23658;SDS011;12006;42.666;23.326;2022-08-19T07:22:55;9.48;;;7.82;;
23658;SDS011;12006;42.666;23.326;2022-08-19T07:25:20;6.97;;;5.45;;
23658;SDS011;12006;42.666;23.326;2022-08-19T07:27:48;4.60;;;4.22;;
23658;SDS011;12006;42.666;23.326;2022-08-19T07:30:13;9.15;;;7.68;;
23658;SDS011;12006;42.666;23.326;2022-08-19T07:32:39;7.10;;;5.97;;
23658;SDS011;12006;42.666;23.326;2022-08-19T07:35:04;7.50;;;6.80;;
23658;SDS011;12006;42.666;23.326;2022-08-19T07:37:31;6.47;;;5.55;;
23658;SDS011;12006;42.666;23.326;2022-08-19T07:39:56;5.55;;;4.97;;
23658;SDS011;12006;42.666;23.326;2022-08-19T07:42:21;6.72;;;4.55;;
23658;SDS011;12006;42.666;23.326;2022-08-19T07:44:47;5.50;;;4.95;;
23658;SDS011;12006;42.666;23.326;2022-08-19T07:47:12;6.57;;;5.45;;
23658;SDS011;12006;42.666;23.326;2022-08-19T07:49:40;7.57;;;5.20;;
23658;SDS011;12006;42.666;23.326;2022-08-19T07:52:07;4.72;;;4.28;;
23658;SDS011;12006;42.666;23.326;2022-08-19T07:54:33;4.95;;;4.55;;
23658;SDS011;12006;42.666;23.326;2022-08-19T07:56:59;5.72;;;4.35;;
23658;SDS011;12006;42.666;23.326;2022-08-19T07:59:24;6.07;;;4.63;;
23658;SDS011;12006;42.666;23.326;2022-08-19T08:01:50;5.43;;;4.35;;
23658;SDS011;12006;42.666;23.326;2022-08-19T08:04:16;6.85;;;6.22;;
23658;SDS011;12006;42.666;23.326;2022-08-19T08:07:00;5.80;;;5.20;;
23658;SDS011;12006;42.666;23.326;2022-08-19T08:09:44;6.72;;;6.03;;
23658;SDS011;12006;42.666;23.326;2022-08-19T08:12:11;5.68;;;5.18;;
23658;SDS011;12006;42.666;23.326;2022-08-19T08:14:45;6.32;;;5.55;;
23658;SDS011;12006;42.666;23.326;2022-08-19T08:17:12;6.50;;;5.85;;
23658;SDS011;12006;42.666;23.326;2022-08-19T08:19:38;6.10;;;5.38;;
23658;SDS011;12006;42.666;23.326;2022-08-19T08:22:06;5.10;;;4.70;;
23658;SDS011;12006;42.666;23.326;2022-08-19T08:24:32;5.53;;;4.93;;
23658;SDS011;12006;42.666;23.326;2022-08-19T08:26:59;5.57;;;4.90;;
23658;SDS011;12006;42.666;23.326;2022-08-19T08:29:25;5.78;;;5.15;;
23658;SDS011;12006;42.666;23.326;2022-08-19T08:31:50;5.60;;;5.10;;
23658;SDS011;12006;42.666;23.326;2022-08-19T08:34:16;5.15;;;4.70;;
23658;SDS011;12006;42.666;23.326;2022-08-19T08:36:44;4.85;;;4.43;;
23658;SDS011;12006;42.666;23.326;2022-08-19T08:39:10;4.88;;;4.38;;
23658;SDS011;12006;42.666;23.326;2022-08-19T08:44:21;4.30;;;3.90;;
23658;SDS011;12006;42.666;23.326;2022-08-19T08:46:50;4.30;;;4.00;;
23658;SDS011;12006;42.666;23.326;2022-08-19T08:54:34;3.78;;;3.47;;
23658;SDS011;12006;42.666;23.326;2022-08-19T08:56:59;3.40;;;3.10;;
23658;SDS011;12006;42.666;23.326;2022-08-19T08:59:27;3.45;;;3.15;;
23658;SDS011;12006;42.666;23.326;2022-08-19T09:01:53;3.90;;;3.45;;
23658;SDS011;12006;42.666;23.326;2022-08-19T09:04:18;2.95;;;2.75;;
23658;SDS011;12006;42.666;23.326;2022-08-19T09:06:48;3.13;;;2.90;;
23658;SDS011;12006;42.666;23.326;2022-08-19T09:09:17;3.38;;;2.95;;
23658;SDS011;12006;42.666;23.326;2022-08-19T09:11:50;3.40;;;3.08;;
23658;SDS011;12006;42.666;23.326;2022-08-19T09:16:56;2.83;;;2.63;;
23658;SDS011;12006;42.666;23.326;2022-08-19T09:19:21;3.97;;;3.00;;
23658;SDS011;12006;42.666;23.326;2022-08-19T09:21:46;2.65;;;2.45;;
23658;SDS011;12006;42.666;23.326;2022-08-19T09:24:12;2.80;;;2.60;;
23658;SDS011;12006;42.666;23.326;2022-08-19T09:26:38;4.57;;;2.80;;
23658;SDS011;12006;42.666;23.326;2022-08-19T09:29:03;3.30;;;3.00;;
23658;SDS011;12006;42.666;23.326;2022-08-19T09:31:30;3.00;;;2.80;;
23658;SDS011;12006;42.666;23.326;2022-08-19T09:33:57;3.72;;;2.63;;
23658;SDS011;12006;42.666;23.326;2022-08-19T09:36:23;2.38;;;2.20;;
23658;SDS011;12006;42.666;23.326;2022-08-19T09:38:50;2.75;;;2.55;;
23658;SDS011;12006;42.666;23.326;2022-08-19T09:41:16;2.83;;;2.63;;
23658;SDS011;12006;42.666;23.326;2022-08-19T09:43:44;2.92;;;2.63;;
23658;SDS011;12006;42.666;23.326;2022-08-19T09:46:10;2.92;;;2.72;;
23658;SDS011;12006;42.666;23.326;2022-08-19T09:48:36;2.85;;;2.65;;
23658;SDS011;12006;42.666;23.326;2022-08-19T09:51:05;2.88;;;2.67;;
23658;SDS011;12006;42.666;23.326;2022-08-19T09:53:31;2.80;;;2.60;;
23658;SDS011;12006;42.666;23.326;2022-08-19T09:55:56;2.88;;;2.67;;
23658;SDS011;12006;42.666;23.326;2022-08-19T09:58:22;2.70;;;2.50;;
23658;SDS011;12006;42.666;23.326;2022-08-19T10:00:52;2.53;;;2.33;;
23658;SDS011;12006;42.666;23.326;2022-08-19T10:03:18;2.72;;;2.50;;
23658;SDS011;12006;42.666;23.326;2022-08-19T10:05:43;3.78;;;2.55;;
23658;SDS011;12006;42.666;23.326;2022-08-19T10:08:16;3.17;;;2.95;;
23658;SDS011;12006;42.666;23.326;2022-08-19T10:10:42;3.22;;;2.67;;
23658;SDS011;12006;42.666;23.326;2022-08-19T10:13:09;2.85;;;2.65;;
23658;SDS011;12006;42.666;23.326;2022-08-19T10:15:34;2.50;;;2.30;;
23658;SDS011;12006;42.666;23.326;2022-08-19T10:17:59;2.90;;;2.70;;
23658;SDS011;12006;42.666;23.326;2022-08-19T10:20:25;2.80;;;2.60;;
23658;SDS011;12006;42.666;23.326;2022-08-19T10:22:50;2.38;;;2.28;;
23658;SDS011;12006;42.666;23.326;2022-08-19T10:25:15;3.05;;;2.80;;
23658;SDS011;12006;42.666;23.326;2022-08-19T10:27:41;3.03;;;2.83;;
23658;SDS011;12006;42.666;23.326;2022-08-19T10:30:07;2.78;;;2.45;;
23658;SDS011;12006;42.666;23.326;2022-08-19T10:32:33;2.90;;;2.63;;
23658;SDS011;12006;42.666;23.326;2022-08-19T10:34:59;3.53;;;2.97;;
23658;SDS011;12006;42.666;23.326;2022-08-19T10:37:24;2.90;;;2.60;;
23658;SDS011;12006;42.666;23.326;2022-08-19T10:39:49;3.15;;;2.67;;
23658;SDS011;12006;42.666;23.326;2022-08-19T10:42:15;3.75;;;3.45;;
23658;SDS011;12006;42.666;23.326;2022-08-19T10:44:41;3.13;;;2.85;;
23658;SDS011;12006;42.666;23.326;2022-08-19T10:47:07;5.03;;;3.75;;
23658;SDS011;12006;42.666;23.326;2022-08-19T10:49:33;3.72;;;2.65;;
23658;SDS011;12006;42.666;23.326;2022-08-19T10:52:18;3.92;;;3.63;;
23658;SDS011;12006;42.666;23.326;2022-08-19T10:55:02;2.60;;;2.40;;
23658;SDS011;12006;42.666;23.326;2022-08-19T10:57:46;3.03;;;2.83;;
23658;SDS011;12006;42.666;23.326;2022-08-19T11:00:12;4.82;;;4.28;;
23658;SDS011;12006;42.666;23.326;2022-08-19T11:02:38;5.90;;;4.65;;
23658;SDS011;12006;42.666;23.326;2022-08-19T11:05:04;3.05;;;2.85;;
23658;SDS011;12006;42.666;23.326;2022-08-19T11:07:30;3.28;;;3.08;;
23658;SDS011;12006;42.666;23.326;2022-08-19T11:09:55;3.33;;;3.03;;
23658;SDS011;12006;42.666;23.326;2022-08-19T11:12:21;3.97;;;3.67;;
23658;SDS011;12006;42.666;23.326;2022-08-19T11:14:46;5.18;;;3.08;;
23658;SDS011;12006;42.666;23.326;2022-08-19T11:17:12;3.88;;;3.13;;
23658;SDS011;12006;42.666;23.326;2022-08-19T11:19:38;3.13;;;2.83;;
23658;SDS011;12006;42.666;23.326;2022-08-19T11:22:04;4.32;;;3.40;;
23658;SDS011;12006;42.666;23.326;2022-08-19T11:24:33;5.20;;;3.17;;
23658;SDS011;12006;42.666;23.326;2022-08-19T11:27:06;3.10;;;2.90;;
23658;SDS011;12006;42.666;23.326;2022-08-19T11:29:32;3.13;;;2.92;;
23658;SDS011;12006;42.666;23.326;2022-08-19T11:31:57;3.58;;;3.20;;
23658;SDS011;12006;42.666;23.326;2022-08-19T11:34:24;3.47;;;3.28;;
23658;SDS011;12006;42.666;23.326;2022-08-19T11:36:50;3.33;;;3.13;;
23658;SDS011;12006;42.666;23.326;2022-08-19T11:39:17;4.05;;;3.75;;
23658;SDS011;12006;42.666;23.326;2022-08-19T11:41:42;3.13;;;2.92;;
23658;SDS011;12006;42.666;23.326;2022-08-19T11:44:08;3.65;;;3.35;;
23658;SDS011;12006;42.666;23.326;2022-08-19T11:46:34;3.60;;;3.30;;
23658;SDS011;12006;42.666;23.326;2022-08-19T11:49:00;3.53;;;3.22;;
23658;SDS011;12006;42.666;23.326;2022-08-19T11:51:26;3.90;;;3.63;;
23658;SDS011;12006;42.666;23.326;2022-08-19T11:53:52;3.90;;;3.60;;
23658;SDS011;12006;42.666;23.326;2022-08-19T11:56:18;5.15;;;4.15;;
23658;SDS011;12006;42.666;23.326;2022-08-19T11:58:44;4.30;;;3.30;;
23658;SDS011;12006;42.666;23.326;2022-08-19T12:01:10;3.67;;;3.38;;
23658;SDS011;12006;42.666;23.326;2022-08-19T12:03:36;4.10;;;3.08;;
23658;SDS011;12006;42.666;23.326;2022-08-19T12:06:05;2.92;;;2.70;;
23658;SDS011;12006;42.666;23.326;2022-08-19T12:08:31;3.42;;;3.22;;
23658;SDS011;12006;42.666;23.326;2022-08-19T12:10:56;3.05;;;2.85;;
23658;SDS011;12006;42.666;23.326;2022-08-19T12:13:21;3.38;;;3.17;;
23658;SDS011;12006;42.666;23.326;2022-08-19T12:15:47;3.60;;;3.30;;
23658;SDS011;12006;42.666;23.326;2022-08-19T12:18:13;3.90;;;3.70;;
23658;SDS011;12006;42.666;23.326;2022-08-19T12:20:42;3.85;;;3.55;;
23658;SDS011;12006;42.666;23.326;2022-08-19T12:23:08;3.83;;;3.50;;
23658;SDS011;12006;42.666;23.326;2022-08-19T12:25:34;3.85;;;3.33;;
23658;SDS011;12006;42.666;23.326;2022-08-19T12:27:59;3.33;;;3.13;;
23658;SDS011;12006;42.666;23.326;2022-08-19T12:30:25;4.15;;;3.85;;
23658;SDS011;12006;42.666;23.326;2022-08-19T12:32:51;3.70;;;3.40;;
23658;SDS011;12006;42.666;23.326;2022-08-19T12:35:17;4.00;;;3.70;;
23658;SDS011;12006;42.666;23.326;2022-08-19T12:37:42;6.25;;;5.65;;
23658;SDS011;12006;42.666;23.326;2022-08-19T12:40:09;5.40;;;4.90;;
23658;SDS011;12006;42.666;23.326;2022-08-19T12:42:36;3.83;;;3.47;;
23658;SDS011;12006;42.666;23.326;2022-08-19T12:45:02;4.13;;;3.80;;
23658;SDS011;12006;42.666;23.326;2022-08-19T12:47:28;3.97;;;3.67;;
23658;SDS011;12006;42.666;23.326;2022-08-19T12:49:53;3.30;;;3.10;;
23658;SDS011;12006;42.666;23.326;2022-08-19T12:52:19;3.70;;;3.40;;
23658;SDS011;12006;42.666;23.326;2022-08-19T12:54:46;3.28;;;2.97;;
23658;SDS011;12006;42.666;23.326;2022-08-19T12:57:11;5.22;;;4.82;;
23658;SDS011;12006;42.666;23.326;2022-08-19T12:59:37;23.92;;;21.70;;
23658;SDS011;12006;42.666;23.326;2022-08-19T13:02:03;11.90;;;10.80;;
23658;SDS011;12006;42.666;23.326;2022-08-19T13:04:30;8.55;;;7.85;;
23658;SDS011;12006;42.666;23.326;2022-08-19T13:06:56;4.97;;;4.57;;
23658;SDS011;12006;42.666;23.326;2022-08-19T13:09:21;4.35;;;3.70;;
23658;SDS011;12006;42.666;23.326;2022-08-19T13:11:47;6.18;;;3.60;;
23658;SDS011;12006;42.666;23.326;2022-08-19T13:14:12;3.70;;;3.40;;
23658;SDS011;12006;42.666;23.326;2022-08-19T13:16:37;3.63;;;3.28;;
23658;SDS011;12006;42.666;23.326;2022-08-19T13:19:03;2.97;;;2.78;;
23658;SDS011;12006;42.666;23.326;2022-08-19T13:21:30;3.53;;;3.22;;
23658;SDS011;12006;42.666;23.326;2022-08-19T13:23:55;3.58;;;3.28;;
23658;SDS011;12006;42.666;23.326;2022-08-19T13:26:21;3.40;;;3.03;;
23658;SDS011;12006;42.666;23.326;2022-08-19T13:28:46;6.22;;;5.68;;
23658;SDS011;12006;42.666;23.326;2022-08-19T13:31:31;4.20;;;3.75;;
23658;SDS011;12006;42.666;23.326;2022-08-19T13:34:16;4.10;;;3.70;;
23658;SDS011;12006;42.666;23.326;2022-08-19T13:36:42;6.45;;;3.90;;
23658;SDS011;12006;42.666;23.326;2022-08-19T13:39:07;4.10;;;3.80;;
23658;SDS011;12006;42.666;23.326;2022-08-19T13:41:33;3.10;;;2.90;;
23658;SDS011;12006;42.666;23.326;2022-08-19T13:43:59;4.03;;;3.72;;
23658;SDS011;12006;42.666;23.326;2022-08-19T13:46:25;3.90;;;3.60;;
23658;SDS011;12006;42.666;23.326;2022-08-19T13:48:50;3.83;;;3.47;;
23658;SDS011;12006;42.666;23.326;2022-08-19T13:51:16;3.75;;;3.50;;
23658;SDS011;12006;42.666;23.326;2022-08-19T13:53:41;3.72;;;3.42;;
23658;SDS011;12006;42.666;23.326;2022-08-19T13:56:12;4.50;;;4.13;;
23658;SDS011;12006;42.666;23.326;2022-08-19T13:58:37;3.92;;;3.63;;
23658;SDS011;12006;42.666;23.326;2022-08-19T14:01:03;6.03;;;5.18;;
23658;SDS011;12006;42.666;23.326;2022-08-19T14:03:29;6.82;;;5.50;;
23658;SDS011;12006;42.666;23.326;2022-08-19T14:05:55;4.10;;;3.80;;
23658;SDS011;12006;42.666;23.326;2022-08-19T14:08:20;3.53;;;3.22;;
23658;SDS011;12006;42.666;23.326;2022-08-19T14:10:45;5.47;;;4.88;;
23658;SDS011;12006;42.666;23.326;2022-08-19T14:13:13;4.65;;;4.35;;
23658;SDS011;12006;42.666;23.326;2022-08-19T14:15:38;7.38;;;6.78;;
23658;SDS011;12006;42.666;23.326;2022-08-19T14:18:04;4.85;;;3.90;;
23658;SDS011;12006;42.666;23.326;2022-08-19T14:20:29;4.28;;;3.95;;
23658;SDS011;12006;42.666;23.326;2022-08-19T14:22:55;5.35;;;4.95;;
23658;SDS011;12006;42.666;23.326;2022-08-19T14:25:24;5.10;;;4.55;;
23658;SDS011;12006;42.666;23.326;2022-08-19T14:27:50;4.03;;;3.72;;
23658;SDS011;12006;42.666;23.326;2022-08-19T14:30:16;6.43;;;5.80;;
23658;SDS011;12006;42.666;23.326;2022-08-19T14:32:42;6.25;;;5.60;;
23658;SDS011;12006;42.666;23.326;2022-08-19T14:35:11;4.07;;;3.70;;
23658;SDS011;12006;42.666;23.326;2022-08-19T14:37:37;3.92;;;3.63;;
23658;SDS011;12006;42.666;23.326;2022-08-19T14:40:03;3.83;;;3.50;;
23658;SDS011;12006;42.666;23.326;2022-08-19T14:42:28;3.67;;;3.38;;